Time;durP1;ratioP1;P1;durP2;ratioP2;P2;SDS_P1;SDS_P2;PMS_P1;PMS_P2;Temp;Humidity;BMP_temperature;BMP_pressure;BME280_temperature;BME280_humidity;BME280_pressure;Samples;Min_cycle;Max_cycle;Signal;HPM_P1;HPM_P2
2023/12/18 00:00:56;;;;;;;5.80;3.10;;;;;;;5.45;100.00;102451.94;5039912;28;20203;-74
2023/12/18 00:03:23;;;;;;;4.93;3.03;;;;;;;5.44;100.00;102450.38;5042712;28;20206;-73
2023/12/18 00:05:49;;;;;;;5.83;3.13;;;;;;;5.45;100.00;102459.03;5040627;28;20206;-73
2023/12/18 00:08:15;;;;;;;5.13;3.30;;;;;;;5.47;100.00;102459.56;5039199;28;20382;-74
2023/12/18 00:10:42;;;;;;;5.33;2.93;;;;;;;5.46;100.00;102465.84;5041838;28;20558;-74
2023/12/18 00:13:08;;;;;;;4.70;3.30;;;;;;;5.43;100.00;102458.47;5037935;28;20283;-74
2023/12/18 00:15:34;;;;;;;3.67;3.03;;;;;;;5.40;100.00;102451.13;5040805;28;20203;-75
2023/12/18 00:18:02;;;;;;;3.87;2.87;;;;;;;5.38;100.00;102442.72;5040843;28;20215;-74
2023/12/18 00:20:28;;;;;;;5.03;3.20;;;;;;;5.35;100.00;102425.66;5038000;28;20203;-74
2023/12/18 00:22:55;;;;;;;2.87;2.53;;;;;;;5.33;100.00;102430.34;5044125;28;20202;-74
2023/12/18 00:25:21;;;;;;;6.80;3.40;;;;;;;5.31;100.00;102427.19;5042520;28;20435;-74
2023/12/18 00:27:47;;;;;;;4.63;2.70;;;;;;;5.30;100.00;102430.84;5041452;28;20192;-74
2023/12/18 00:30:14;;;;;;;6.53;3.30;;;;;;;5.30;100.00;102422.19;5021667;28;20674;-73
2023/12/18 00:32:40;;;;;;;4.13;3.07;;;;;;;5.30;100.00;102423.00;5039598;28;20217;-74
2023/12/18 00:35:09;;;;;;;6.17;2.77;;;;;;;5.30;100.00;102412.53;5021319;28;20215;-74
2023/12/18 00:37:35;;;;;;;4.47;3.03;;;;;;;5.30;100.00;102420.38;5042748;28;20214;-74
2023/12/18 00:40:01;;;;;;;7.63;3.43;;;;;;;5.30;100.00;102415.13;5025040;28;20226;-74
2023/12/18 00:42:28;;;;;;;4.90;2.93;;;;;;;5.28;100.00;102411.97;5039425;28;20726;-73
2023/12/18 00:44:54;;;;;;;4.43;2.93;;;;;;;5.30;100.00;102409.09;5040702;28;20192;-75
2023/12/18 00:47:21;;;;;;;4.40;2.83;;;;;;;5.28;100.00;102417.19;5025234;28;20214;-74
2023/12/18 00:49:48;;;;;;;5.00;3.60;;;;;;;5.27;100.00;102417.44;5036909;28;20216;-74
2023/12/18 00:52:16;;;;;;;4.20;3.00;;;;;;;5.25;100.00;102415.09;5036054;28;20261;-74
2023/12/18 00:54:42;;;;;;;4.20;3.30;;;;;;;5.21;100.00;102416.59;5039426;28;20211;-73
2023/12/18 00:57:08;;;;;;;5.67;3.30;;;;;;;5.22;100.00;102409.53;5023740;28;20225;-74
2023/12/18 00:59:35;;;;;;;4.37;3.17;;;;;;;5.19;100.00;102412.66;5036487;28;20749;-74
2023/12/18 01:02:01;;;;;;;4.33;3.07;;;;;;;5.16;100.00;102403.44;5041486;28;20192;-75
2023/12/18 01:04:28;;;;;;;7.47;3.50;;;;;;;5.18;100.00;102404.00;5040180;28;20204;-74
2023/12/18 01:06:54;;;;;;;6.40;3.20;;;;;;;5.16;100.00;102413.13;5039807;28;20193;-74
2023/12/18 01:09:22;;;;;;;6.73;3.20;;;;;;;5.14;100.00;102402.88;5040487;28;20224;-73
2023/12/18 01:11:49;;;;;;;4.50;2.87;;;;;;;5.12;100.00;102399.72;5040087;28;20660;-74
2023/12/18 01:14:15;;;;;;;4.23;3.00;;;;;;;5.13;100.00;102405.78;5040146;28;20673;-74
2023/12/18 01:16:42;;;;;;;6.60;3.60;;;;;;;5.10;100.00;102403.63;5039593;28;20218;-74
2023/12/18 01:19:08;;;;;;;4.97;3.13;;;;;;;5.08;100.00;102401.25;5038238;28;20252;-74
2023/12/18 01:21:35;;;;;;;4.10;3.00;;;;;;;5.04;100.00;102394.94;5037806;28;20211;-74
2023/12/18 01:24:01;;;;;;;6.77;3.07;;;;;;;5.02;100.00;102399.63;5040824;28;20195;-74
2023/12/18 01:26:29;;;;;;;6.60;3.37;;;;;;;5.01;100.00;102395.41;5039703;28;20211;-74
2023/12/18 01:28:55;;;;;;;6.23;3.10;;;;;;;5.02;100.00;102390.97;5039729;28;20215;-74
2023/12/18 01:31:22;;;;;;;5.77;3.63;;;;;;;4.99;100.00;102387.03;5020652;28;20573;-74
2023/12/18 01:33:49;;;;;;;4.80;3.10;;;;;;;4.97;100.00;102386.47;5042483;28;20512;-74
2023/12/18 01:36:16;;;;;;;5.00;3.10;;;;;;;4.95;100.00;102390.34;5044428;28;20203;-74
2023/12/18 01:38:42;;;;;;;7.43;3.20;;;;;;;4.93;100.00;102385.38;5038430;28;20244;-74
2023/12/18 01:41:09;;;;;;;7.07;3.20;;;;;;;4.93;100.00;102381.97;5041886;28;20389;-74
2023/12/18 01:43:36;;;;;;;5.50;3.47;;;;;;;4.92;100.00;102385.63;5041408;28;20206;-74
2023/12/18 01:46:03;;;;;;;6.03;3.60;;;;;;;4.91;100.00;102374.34;5046779;28;20200;-74
2023/12/18 01:48:31;;;;;;;8.27;4.20;;;;;;;4.90;100.00;102371.97;5045604;28;20705;-74
2023/12/18 01:50:59;;;;;;;5.33;3.33;;;;;;;4.89;100.00;102378.25;5040884;28;20208;-74
2023/12/18 01:53:28;;;;;;;5.53;3.80;;;;;;;4.87;100.00;102372.47;5042348;28;20683;-72
2023/12/18 01:55:55;;;;;;;6.23;3.57;;;;;;;4.86;100.00;102379.53;5042065;28;20188;-74
2023/12/18 01:58:22;;;;;;;7.67;3.53;;;;;;;4.86;100.00;102384.75;5046088;28;20226;-74
2023/12/18 02:00:50;;;;;;;7.07;3.53;;;;;;;4.85;100.00;102382.38;5043970;28;20552;-75
2023/12/18 02:03:19;;;;;;;5.50;3.60;;;;;;;4.83;100.00;102384.47;5026788;28;20205;-74
2023/12/18 02:05:45;;;;;;;6.10;3.23;;;;;;;4.80;100.00;102385.75;5043260;28;20204;-74
2023/12/18 02:08:12;;;;;;;5.53;3.87;;;;;;;4.76;100.00;102376.00;5042373;28;20215;-75
2023/12/18 02:10:38;;;;;;;5.87;3.43;;;;;;;4.74;100.00;102381.47;5020556;28;20205;-74
2023/12/18 02:13:05;;;;;;;6.33;3.87;;;;;;;4.72;100.00;102370.44;5043270;28;20202;-74
2023/12/18 02:15:31;;;;;;;7.23;3.60;;;;;;;4.70;100.00;102366.50;5040174;28;20190;-74
2023/12/18 02:17:59;;;;;;;6.03;3.47;;;;;;;4.69;100.00;102365.72;5040595;28;20227;-74
2023/12/18 02:20:25;;;;;;;6.93;4.23;;;;;;;4.68;100.00;102363.34;5040346;28;20579;-73
2023/12/18 02:22:53;;;;;;;5.53;3.37;;;;;;;4.67;100.00;102354.69;5042008;28;20193;-74
2023/12/18 02:25:20;;;;;;;5.00;3.63;;;;;;;4.66;100.00;102347.09;5038529;28;20194;-74
2023/12/18 02:27:48;;;;;;;8.50;3.60;;;;;;;4.66;100.00;102347.09;5041806;28;20614;-74
2023/12/18 02:30:15;;;;;;;7.70;4.03;;;;;;;4.65;100.00;102354.16;5039777;28;20242;-74
2023/12/18 02:32:41;;;;;;;5.13;3.60;;;;;;;4.64;100.00;102347.34;5040473;28;20195;-72
2023/12/18 02:35:08;;;;;;;7.43;3.87;;;;;;;4.65;100.00;102348.91;5042171;28;20265;-74
2023/12/18 02:37:35;;;;;;;8.47;4.13;;;;;;;4.64;100.00;102352.56;5042680;28;20207;-74
2023/12/18 02:40:03;;;;;;;5.60;3.90;;;;;;;4.62;100.00;102341.53;5044651;28;20211;-74
2023/12/18 02:42:29;;;;;;;6.47;3.90;;;;;;;4.62;100.00;102357.25;5043240;28;20674;-74
2023/12/18 02:44:57;;;;;;;4.90;3.70;;;;;;;4.61;100.00;102360.13;5042248;28;20558;-75
2023/12/18 02:47:23;;;;;;;6.00;4.17;;;;;;;4.59;100.00;102357.75;5043950;28;20204;-74
2023/12/18 02:49:50;;;;;;;7.53;3.80;;;;;;;4.58;100.00;102356.16;5041491;28;20215;-74
2023/12/18 02:52:16;;;;;;;6.47;3.87;;;;;;;4.56;100.00;102355.59;5042856;28;20229;-75
2023/12/18 02:54:42;;;;;;;5.87;3.93;;;;;;;4.54;100.00;102360.28;5042339;28;20197;-74
2023/12/18 02:57:10;;;;;;;6.23;3.90;;;;;;;4.51;100.00;102347.69;5042741;28;20208;-74
2023/12/18 02:59:36;;;;;;;5.33;4.00;;;;;;;4.49;100.00;102348.94;5039903;28;20230;-74
2023/12/18 03:02:03;;;;;;;6.70;3.70;;;;;;;4.46;100.00;102358.06;5035556;28;20676;-74
2023/12/18 03:04:29;;;;;;;5.70;3.60;;;;;;;4.44;100.00;102361.97;5040487;28;20200;-74
2023/12/18 03:06:56;;;;;;;8.43;3.80;;;;;;;4.42;100.00;102362.22;5023629;28;20204;-74
2023/12/18 03:09:22;;;;;;;7.70;3.90;;;;;;;4.40;100.00;102363.50;5043398;28;20216;-74
2023/12/18 03:11:48;;;;;;;6.63;3.50;;;;;;;4.37;100.00;102371.81;5042896;28;20206;-74
2023/12/18 03:14:16;;;;;;;6.50;3.80;;;;;;;4.36;100.00;102365.00;5040013;28;20199;-74
2023/12/18 03:16:42;;;;;;;6.53;4.00;;;;;;;4.31;100.00;102355.25;5041379;28;20204;-74
2023/12/18 03:19:09;;;;;;;7.60;3.90;;;;;;;4.29;100.00;102361.75;5022219;28;20219;-74
2023/12/18 03:21:35;;;;;;;5.40;4.30;;;;;;;4.25;100.00;102364.06;5036554;28;20564;-75
2023/12/18 03:24:01;;;;;;;6.63;3.80;;;;;;;4.23;100.00;102358.28;5041145;28;20192;-74
2023/12/18 03:26:28;;;;;;;5.57;3.80;;;;;;;4.21;100.00;102362.97;5042544;28;20200;-74
2023/12/18 03:28:54;;;;;;;7.20;3.83;;;;;;;4.19;100.00;102356.41;5044335;28;20219;-74
2023/12/18 03:31:22;;;;;;;6.20;3.90;;;;;;;4.15;100.00;102355.28;5024248;28;20215;-74
2023/12/18 03:33:48;;;;;;;7.27;4.17;;;;;;;4.11;100.00;102357.59;5042961;28;20199;-74
2023/12/18 03:36:14;;;;;;;8.67;4.33;;;;;;;4.10;100.00;102361.22;5042944;28;20204;-74
2023/12/18 03:38:40;;;;;;;5.63;4.10;;;;;;;4.08;100.00;102367.72;5043782;28;20310;-74
2023/12/18 03:41:06;;;;;;;5.23;3.40;;;;;;;4.04;100.00;102367.41;5043545;28;20266;-74
2023/12/18 03:43:32;;;;;;;6.67;4.20;;;;;;;4.01;100.00;102360.06;5044615;28;20199;-73
2023/12/18 03:45:59;;;;;;;9.47;4.53;;;;;;;3.97;100.00;102364.16;5043215;28;20562;-74
2023/12/18 03:48:27;;;;;;;7.23;3.97;;;;;;;3.93;100.00;102363.06;5042528;28;20219;-74
2023/12/18 03:50:53;;;;;;;7.43;4.23;;;;;;;3.91;100.00;102361.72;5039255;28;20193;-74
2023/12/18 03:53:19;;;;;;;5.50;4.03;;;;;;;3.87;100.00;102364.00;5038610;28;20196;-74
2023/12/18 03:55:45;;;;;;;7.57;4.13;;;;;;;3.83;100.00;102368.13;5042272;28;20207;-74
2023/12/18 03:58:11;;;;;;;6.27;3.80;;;;;;;3.79;100.00;102353.16;5041259;28;20607;-74
2023/12/18 04:00:38;;;;;;;6.50;4.10;;;;;;;3.75;100.00;102359.88;5039529;28;20675;-74
2023/12/18 04:03:05;;;;;;;7.80;4.10;;;;;;;3.71;100.00;102348.31;5042444;28;20282;-74
2023/12/18 04:05:33;;;;;;;6.03;4.10;;;;;;;3.66;100.00;102346.44;5041454;28;20198;-74
2023/12/18 04:07:59;;;;;;;5.67;4.20;;;;;;;3.63;100.00;102351.34;5040294;28;20191;-74
2023/12/18 04:10:25;;;;;;;8.53;4.47;;;;;;;3.57;100.00;102349.69;5040674;28;21493;-73
2023/12/18 04:12:52;;;;;;;8.43;4.27;;;;;;;3.53;100.00;102356.38;5043839;28;20199;-74
2023/12/18 04:15:18;;;;;;;8.73;4.33;;;;;;;3.50;100.00;102365.50;5042103;28;20582;-74
2023/12/18 04:17:44;;;;;;;7.13;3.80;;;;;;;3.46;100.00;102366.97;5042165;28;20213;-74
2023/12/18 04:20:11;;;;;;;9.43;4.17;;;;;;;3.41;100.00;102353.84;5037391;28;20220;-74
2023/12/18 04:22:39;;;;;;;8.40;4.07;;;;;;;3.37;100.00;102357.94;5039849;28;20667;-74
2023/12/18 04:25:06;;;;;;;5.10;3.50;;;;;;;3.33;100.00;102342.97;5041190;28;20199;-74
2023/12/18 04:27:33;;;;;;;5.70;4.33;;;;;;;3.29;100.00;102355.72;5040630;28;20200;-74
2023/12/18 04:29:59;;;;;;;6.87;4.40;;;;;;;3.27;100.00;102362.97;5038233;28;20473;-73
2023/12/18 04:32:26;;;;;;;7.83;4.07;;;;;;;3.24;100.00;102365.25;5038457;28;20195;-74
2023/12/18 04:34:53;;;;;;;5.40;3.83;;;;;;;3.21;100.00;102360.53;5039989;28;20200;-75
2023/12/18 04:37:19;;;;;;;6.70;4.43;;;;;;;3.17;100.00;102360.16;5039784;28;20576;-75
2023/12/18 04:39:47;;;;;;;8.77;4.50;;;;;;;3.14;100.00;102363.25;5040201;28;20705;-74
2023/12/18 04:42:13;;;;;;;8.63;4.03;;;;;;;3.12;100.00;102370.50;5040061;28;20200;-74
2023/12/18 04:44:39;;;;;;;7.60;4.73;;;;;;;3.07;100.00;102375.63;5035543;28;20191;-74
2023/12/18 04:47:06;;;;;;;7.13;4.33;;;;;;;3.05;100.00;102375.09;5022859;28;20218;-74
2023/12/18 04:49:32;;;;;;;9.30;4.53;;;;;;;3.02;100.00;102375.53;5040492;28;20211;-74
2023/12/18 04:51:58;;;;;;;10.97;4.87;;;;;;;3.01;100.00;102373.97;5041740;28;20333;-74
2023/12/18 04:54:25;;;;;;;7.00;4.87;;;;;;;2.99;100.00;102367.38;5025561;28;20218;-73
2023/12/18 04:56:53;;;;;;;10.03;5.03;;;;;;;2.97;100.00;102372.84;5042027;28;20536;-74
2023/12/18 04:59:19;;;;;;;8.70;5.10;;;;;;;2.97;100.00;102367.63;5040918;28;20223;-73
2023/12/18 05:01:45;;;;;;;9.03;4.80;;;;;;;2.97;100.00;102364.22;5025936;28;20218;-74
2023/12/18 05:04:12;;;;;;;9.83;5.20;;;;;;;2.96;100.00;102376.47;5040405;28;20200;-74
2023/12/18 05:06:39;;;;;;;7.70;4.93;;;;;;;2.96;100.00;102389.50;5040559;28;20234;-74
2023/12/18 05:09:06;;;;;;;7.50;5.37;;;;;;;2.95;100.00;102384.53;5047929;28;20211;-74
2023/12/18 05:11:32;;;;;;;7.53;5.00;;;;;;;2.94;100.00;102375.09;5043505;28;20199;-74
2023/12/18 05:14:00;;;;;;;10.13;5.43;;;;;;;2.96;100.00;102370.47;5042705;28;20200;-74
2023/12/18 05:16:26;;;;;;;9.63;5.13;;;;;;;2.97;100.00;102382.50;5046945;28;20196;-73
2023/12/18 05:18:53;;;;;;;8.73;5.70;;;;;;;2.94;100.00;102372.50;5048085;28;20238;-74
2023/12/18 05:21:20;;;;;;;10.03;5.63;;;;;;;2.94;100.00;102378.53;5044954;28;20196;-74
2023/12/18 05:23:49;;;;;;;10.80;5.63;;;;;;;2.94;100.00;102383.75;5042978;28;20200;-74
2023/12/18 05:26:15;;;;;;;9.67;5.70;;;;;;;2.93;100.00;102376.13;5047166;28;20223;-73
2023/12/18 05:28:42;;;;;;;9.13;5.60;;;;;;;2.94;100.00;102382.94;5043427;28;20246;-74
2023/12/18 05:31:11;;;;;;;11.43;5.83;;;;;;;2.94;100.00;102360.25;5046132;28;20196;-74
2023/12/18 05:33:37;;;;;;;9.87;5.37;;;;;;;2.92;100.00;102364.94;5045636;28;20674;-74
2023/12/18 05:36:04;;;;;;;11.53;6.00;;;;;;;2.93;100.00;102365.69;5041283;28;20223;-74
2023/12/18 05:38:30;;;;;;;10.50;6.30;;;;;;;2.91;100.00;102372.97;5044248;28;20234;-74
2023/12/18 05:40:56;;;;;;;9.43;5.77;;;;;;;2.89;100.00;102369.78;5044069;28;20187;-74
2023/12/18 05:43:23;;;;;;;9.50;5.37;;;;;;;2.89;100.00;102367.19;5046536;28;20192;-74
2023/12/18 05:45:49;;;;;;;12.00;5.87;;;;;;;2.87;100.00;102366.63;5046136;28;20199;-74
2023/12/18 05:48:17;;;;;;;8.60;5.83;;;;;;;2.85;100.00;102372.06;5045190;28;20215;-74
2023/12/18 05:50:43;;;;;;;12.20;6.33;;;;;;;2.83;100.00;102365.50;5045174;28;20207;-74
2023/12/18 05:53:09;;;;;;;11.87;6.40;;;;;;;2.81;100.00;102368.34;5043217;28;20403;-74
2023/12/18 05:55:36;;;;;;;11.30;5.63;;;;;;;2.80;100.00;102371.19;5042904;28;20203;-74
2023/12/18 05:58:02;;;;;;;11.57;6.23;;;;;;;2.77;100.00;102371.66;5046764;28;20227;-74
2023/12/18 06:00:28;;;;;;;9.87;5.73;;;;;;;2.74;100.00;102370.28;5047366;28;20222;-74
2023/12/18 06:02:55;;;;;;;8.10;5.03;;;;;;;2.73;100.00;102379.13;5038018;28;20442;-74
2023/12/18 06:05:22;;;;;;;14.03;6.03;;;;;;;2.71;100.00;102377.78;5054161;28;20195;-74
2023/12/18 06:07:49;;;;;;;9.77;5.60;;;;;;;2.68;100.00;102368.59;5054968;28;20203;-74
2023/12/18 06:10:15;;;;;;;13.37;6.40;;;;;;;2.67;100.00;102369.63;5050811;28;20202;-74
2023/12/18 06:12:41;;;;;;;12.47;6.00;;;;;;;2.66;100.00;102378.47;5050951;28;20206;-74
2023/12/18 06:15:09;;;;;;;11.23;6.20;;;;;;;2.64;100.00;102372.69;5055064;28;20211;-74
2023/12/18 06:17:35;;;;;;;10.37;5.73;;;;;;;2.63;100.00;102380.72;5032050;28;20568;-73
2023/12/18 06:20:03;;;;;;;12.40;6.37;;;;;;;2.62;100.00;102382.56;5049719;28;20598;-73
2023/12/18 06:22:31;;;;;;;11.37;6.60;;;;;;;2.60;100.00;102389.03;5053416;28;20701;-74
2023/12/18 06:24:58;;;;;;;10.37;6.17;;;;;;;2.61;100.00;102385.38;5049021;28;20200;-74
2023/12/18 06:27:24;;;;;;;14.07;6.40;;;;;;;2.62;100.00;102384.38;5052916;28;20196;-74
2023/12/18 06:29:50;;;;;;;10.23;6.47;;;;;;;2.61;100.00;102386.19;5053823;28;20203;-74
2023/12/18 06:32:17;;;;;;;13.83;6.90;;;;;;;2.60;100.00;102384.59;5052904;28;20594;-73
2023/12/18 06:34:44;;;;;;;9.33;6.20;;;;;;;2.59;100.00;102392.66;5046295;28;20204;-73
2023/12/18 06:37:10;;;;;;;18.57;7.17;;;;;;;2.59;100.00;102393.44;5039921;28;20216;-73
2023/12/18 06:39:38;;;;;;;17.30;8.20;;;;;;;2.59;100.00;102397.88;5040316;28;20218;-74
2023/12/18 06:42:05;;;;;;;17.07;8.00;;;;;;;2.57;100.00;102392.88;5044880;28;20192;-74
2023/12/18 06:44:31;;;;;;;14.30;7.47;;;;;;;2.58;100.00;102399.69;5044502;28;20564;-74
2023/12/18 06:46:58;;;;;;;13.67;7.03;;;;;;;2.59;100.00;102401.25;5016371;28;20779;-75
2023/12/18 06:49:24;;;;;;;15.83;8.17;;;;;;;2.59;100.00;102397.88;5022654;28;20303;-74
2023/12/18 06:51:50;;;;;;;12.97;7.13;;;;;;;2.58;100.00;102402.28;5045578;28;20689;-74
2023/12/18 06:54:17;;;;;;;15.23;7.53;;;;;;;2.59;100.00;102405.69;5040467;28;20567;-74
2023/12/18 06:56:44;;;;;;;15.07;7.17;;;;;;;2.59;100.00;102410.91;5042392;28;20199;-74
2023/12/18 06:59:11;;;;;;;12.00;6.97;;;;;;;2.59;100.00;102403.09;5040273;28;20225;-74
2023/12/18 07:01:37;;;;;;;13.07;7.17;;;;;;;2.60;100.00;102420.31;5038190;28;20279;-74
2023/12/18 07:04:04;;;;;;;14.07;7.60;;;;;;;2.60;100.00;102415.88;5043609;28;20196;-74
2023/12/18 07:06:30;;;;;;;21.43;8.00;;;;;;;2.61;100.00;102414.88;5044524;28;20278;-75
2023/12/18 07:08:56;;;;;;;19.33;7.90;;;;;;;2.62;100.00;102408.63;5049904;28;20749;-74
2023/12/18 07:11:23;;;;;;;17.10;7.37;;;;;;;2.63;100.00;102409.41;5045525;28;20207;-74
2023/12/18 07:13:51;;;;;;;20.07;8.83;;;;;;;2.64;100.00;102406.59;5038793;28;20195;-73
2023/12/18 07:16:21;;;;;;;18.60;8.60;;;;;;;2.68;100.00;102402.50;5042666;28;20562;-74
2023/12/18 07:18:48;;;;;;;20.07;8.97;;;;;;;2.71;100.00;102404.63;5037946;28;20219;-74
2023/12/18 07:21:14;;;;;;;24.97;9.13;;;;;;;2.72;100.00;102403.63;5045297;28;20583;-74
2023/12/18 07:23:42;;;;;;;15.57;8.03;;;;;;;2.78;100.00;102412.34;5041304;28;20662;-74
2023/12/18 07:26:12;;;;;;;21.73;9.57;;;;;;;2.81;100.00;102417.91;5039914;28;20201;-73
2023/12/18 07:28:39;;;;;;;21.07;10.47;;;;;;;2.86;100.00;102423.22;5028170;28;20306;-74
2023/12/18 07:31:06;;;;;;;18.20;9.47;;;;;;;2.92;100.00;102427.53;5025783;28;20204;-74
2023/12/18 07:33:33;;;;;;;21.67;10.10;;;;;;;2.99;100.00;102417.75;5038455;28;20328;-74
2023/12/18 07:35:59;;;;;;;18.03;9.53;;;;;;;3.03;100.00;102420.69;5045687;28;20218;-74
2023/12/18 07:38:25;;;;;;;20.93;10.27;;;;;;;3.13;100.00;102439.97;5027014;28;20223;-74
2023/12/18 07:40:52;;;;;;;25.13;9.83;;;;;;;3.21;100.00;102436.22;5042248;28;20238;-74
2023/12/18 07:43:18;;;;;;;24.03;10.83;;;;;;;3.31;100.00;102436.41;5044158;28;20203;-74
2023/12/18 07:45:44;;;;;;;23.30;11.20;;;;;;;3.38;100.00;102424.78;5039615;28;20200;-75
2023/12/18 07:48:12;;;;;;;26.23;11.03;;;;;;;3.48;100.00;102416.38;5040245;28;20215;-74
2023/12/18 07:50:38;;;;;;;27.60;10.67;;;;;;;3.51;100.00;102423.72;5042106;28;20205;-74
2023/12/18 07:53:05;;;;;;;21.30;11.17;;;;;;;3.58;100.00;102411.31;5038131;28;20225;-74
2023/12/18 07:55:31;;;;;;;26.77;11.03;;;;;;;3.62;100.00;102417.63;5039889;28;20202;-74
2023/12/18 07:57:58;;;;;;;24.33;10.97;;;;;;;3.68;100.00;102420.13;5045255;28;20195;-75
2023/12/18 08:00:24;;;;;;;22.23;11.03;;;;;;;3.75;100.00;102426.00;5044025;28;20222;-74
2023/12/18 08:02:50;;;;;;;26.77;11.67;;;;;;;3.82;100.00;102424.03;5039306;28;20202;-73
2023/12/18 08:05:18;;;;;;;25.67;11.47;;;;;;;3.90;100.00;102425.47;5043362;28;20195;-74
2023/12/18 08:07:45;;;;;;;24.43;11.03;;;;;;;3.94;100.00;102424.75;5042243;28;20202;-74
2023/12/18 08:10:11;;;;;;;32.47;11.57;;;;;;;3.99;100.00;102418.81;5047753;28;20211;-74
2023/12/18 08:12:38;;;;;;;26.83;12.03;;;;;;;4.00;100.00;102428.25;5025994;28;20215;-74
2023/12/18 08:15:05;;;;;;;27.47;10.60;;;;;;;4.02;100.00;102437.44;5043630;28;20199;-75
2023/12/18 08:17:37;;;;;;;24.83;11.00;;;;;;;4.05;100.00;102431.72;5037367;28;20615;-75
2023/12/18 08:20:06;;;;;;;31.20;12.33;;;;;;;4.07;100.00;102428.88;5028397;28;20243;-75
2023/12/18 08:22:34;;;;;;;29.50;11.53;;;;;;;4.08;100.00;102427.84;5042337;28;20571;-75
2023/12/18 08:25:02;;;;;;;30.97;12.43;;;;;;;4.09;100.00;102430.22;5022550;28;20212;-74
2023/12/18 08:27:32;;;;;;;30.70;12.27;;;;;;;4.15;100.00;102437.09;5042437;28;20195;-74
2023/12/18 08:29:58;;;;;;;28.87;11.93;;;;;;;4.16;100.00;102432.69;5041878;28;20220;-74
2023/12/18 08:32:25;;;;;;;25.50;12.97;;;;;;;4.21;100.00;102433.56;5027001;28;20203;-74
2023/12/18 08:34:51;;;;;;;30.37;12.93;;;;;;;4.23;100.00;102434.13;5037730;28;20192;-74
2023/12/18 08:37:18;;;;;;;30.50;12.57;;;;;;;4.26;100.00;102435.47;5045406;28;20195;-75
2023/12/18 08:39:45;;;;;;;27.50;12.83;;;;;;;4.30;100.00;102439.19;5041536;28;20215;-74
2023/12/18 08:42:12;;;;;;;30.03;12.60;;;;;;;4.36;100.00;102443.47;5045867;28;20419;-74
2023/12/18 08:44:38;;;;;;;29.70;12.90;;;;;;;4.38;100.00;102434.34;5046865;28;20283;-75
2023/12/18 08:47:05;;;;;;;31.87;13.57;;;;;;;4.44;100.00;102440.44;5039221;28;20204;-74
2023/12/18 08:49:31;;;;;;;38.97;14.77;;;;;;;4.47;100.00;102445.19;5050428;28;20238;-74
2023/12/18 08:51:59;;;;;;;33.50;14.00;;;;;;;4.52;100.00;102443.44;5046484;28;20214;-74
2023/12/18 08:54:25;;;;;;;29.40;13.17;;;;;;;4.56;100.00;102447.16;5049047;28;20520;-74
2023/12/18 08:56:53;;;;;;;32.00;14.10;;;;;;;4.63;100.00;102449.63;5046144;28;20199;-74
2023/12/18 08:59:18;;;;;;;34.73;14.43;;;;;;;4.73;100.00;102452.38;5045385;28;20374;-74
2023/12/18 09:01:44;;;;;;;34.00;16.00;;;;;;;4.83;100.00;102449.91;5028879;28;20351;-74
2023/12/18 09:04:11;;;;;;;39.77;15.57;;;;;;;4.91;100.00;102439.00;5041493;28;20617;-74
2023/12/18 09:06:39;;;;;;;37.63;15.17;;;;;;;5.03;100.00;102445.69;5045042;28;20210;-74
2023/12/18 09:09:05;;;;;;;40.63;16.03;;;;;;;5.14;100.00;102441.38;5047732;28;20276;-75
2023/12/18 09:11:33;;;;;;;38.57;16.33;;;;;;;5.23;100.00;102435.47;5046249;28;20201;-75
2023/12/18 09:14:03;;;;;;;37.40;15.80;;;;;;;5.33;100.00;102430.34;5045291;28;20251;-74
2023/12/18 09:16:29;;;;;;;48.40;17.67;;;;;;;5.39;100.00;102437.22;5023197;28;20199;-74
2023/12/18 09:18:56;;;;;;;39.47;15.93;;;;;;;5.48;100.00;102443.63;5044001;28;20721;-74
2023/12/18 09:21:22;;;;;;;37.93;15.60;;;;;;;5.53;100.00;102446.28;5045428;28;20211;-74
2023/12/18 09:23:49;;;;;;;39.53;17.07;;;;;;;5.60;100.00;102435.63;5045680;28;20200;-74
2023/12/18 09:26:16;;;;;;;34.80;16.77;;;;;;;5.65;100.00;102428.56;5047463;28;20199;-73
2023/12/18 09:28:43;;;;;;;40.70;16.60;;;;;;;5.71;100.00;102432.06;5044302;28;20222;-73
2023/12/18 09:31:11;;;;;;;41.70;17.97;;;;;;;5.77;100.00;102431.84;5044795;28;20203;-73
2023/12/18 09:33:37;;;;;;;43.07;19.27;;;;;;;5.83;100.00;102435.34;5041508;28;20187;-73
2023/12/18 09:36:07;;;;;;;42.30;18.50;;;;;;;5.89;100.00;102439.56;5048062;28;20187;-73
2023/12/18 09:38:34;;;;;;;40.70;17.33;;;;;;;5.94;100.00;102439.63;5049995;28;20685;-73
2023/12/18 09:41:03;;;;;;;44.37;18.77;;;;;;;5.96;100.00;102427.84;5039980;28;20212;-73
2023/12/18 09:43:29;;;;;;;64.87;26.80;;;;;;;5.99;100.00;102437.84;5042481;28;20207;-73
2023/12/18 09:45:57;;;;;;;56.00;23.57;;;;;;;6.06;100.00;102430.56;5044152;28;20273;-72
2023/12/18 09:48:25;;;;;;;46.50;21.37;;;;;;;6.14;100.00;102426.69;5045984;28;20251;-73
2023/12/18 09:50:52;;;;;;;50.77;21.37;;;;;;;6.20;100.00;102425.66;5041500;28;20218;-73
2023/12/18 09:53:20;;;;;;;46.97;21.10;;;;;;;6.26;100.00;102411.56;5043439;28;20740;-73
2023/12/18 09:55:48;;;;;;;51.40;20.67;;;;;;;6.36;100.00;102420.28;5047857;28;20282;-73
2023/12/18 09:58:18;;;;;;;49.23;22.97;;;;;;;6.43;100.00;102420.09;5047401;28;20234;-73
2023/12/18 10:00:44;;;;;;;53.47;22.83;;;;;;;6.51;100.00;102422.22;5045344;28;20243;-73
2023/12/18 10:03:13;;;;;;;59.37;24.83;;;;;;;6.62;100.00;102421.25;5043429;28;20191;-73
2023/12/18 10:05:42;;;;;;;53.40;25.20;;;;;;;6.69;100.00;102421.81;5045337;28;20203;-73
2023/12/18 10:08:09;;;;;;;55.67;24.23;;;;;;;6.74;100.00;102416.59;5045139;28;20199;-73
2023/12/18 10:10:36;;;;;;;49.53;22.47;;;;;;;6.78;100.00;102412.41;5046791;28;20196;-73
2023/12/18 10:13:03;;;;;;;50.80;21.40;;;;;;;6.80;100.00;102413.72;5042655;28;20196;-73
2023/12/18 10:15:30;;;;;;;46.40;20.23;;;;;;;6.82;100.00;102405.59;5041834;28;20637;-73
2023/12/18 10:17:56;;;;;;;41.60;19.80;;;;;;;6.80;100.00;102412.94;5045678;28;20209;-73
2023/12/18 10:20:23;;;;;;;48.40;19.60;;;;;;;6.78;100.00;102412.41;5042536;28;20203;-73
2023/12/18 10:22:51;;;;;;;38.90;18.37;;;;;;;6.75;100.00;102407.66;5044112;28;20207;-73
2023/12/18 10:25:17;;;;;;;37.67;17.83;;;;;;;6.70;100.00;102407.63;5042206;28;20306;-73
2023/12/18 10:27:45;;;;;;;42.90;22.97;;;;;;;6.66;100.00;102412.59;5042031;28;20203;-73
2023/12/18 10:30:12;;;;;;;27.30;15.63;;;;;;;6.58;100.00;102414.94;5040387;28;20222;-73
2023/12/18 10:32:39;;;;;;;27.40;15.90;;;;;;;6.54;100.00;102405.97;5041892;28;20210;-72
2023/12/18 10:35:07;;;;;;;30.23;15.60;;;;;;;6.49;100.00;102412.00;5045451;28;20299;-72
2023/12/18 10:37:37;;;;;;;30.60;17.03;;;;;;;6.47;100.00;102405.41;5043126;28;20199;-73
2023/12/18 10:40:11;;;;;;;23.13;12.33;;;;;;;6.43;100.00;102412.22;5046286;28;20215;-73
2023/12/18 10:42:39;;;;;;;21.53;12.70;;;;;;;6.39;100.00;102414.56;5044560;28;20242;-73
2023/12/18 10:45:07;;;;;;;22.40;11.70;;;;;;;6.37;100.00;102407.97;5044029;28;20284;-73
2023/12/18 10:47:33;;;;;;;21.00;11.90;;;;;;;6.38;100.00;102412.94;5047174;28;20203;-73
2023/12/18 10:50:01;;;;;;;20.40;11.30;;;;;;;6.40;100.00;102416.13;5023023;28;20226;-73
2023/12/18 10:52:28;;;;;;;17.90;11.30;;;;;;;6.45;100.00;102403.03;5025412;28;20199;-72
2023/12/18 10:54:56;;;;;;;17.70;10.97;;;;;;;6.49;100.00;102385.75;5041212;28;20204;-72
2023/12/18 10:57:25;;;;;;;17.83;9.73;;;;;;;6.55;100.00;102386.56;5042209;28;20207;-73
2023/12/18 10:59:53;;;;;;;16.07;9.77;;;;;;;6.59;100.00;102377.94;5020809;28;20629;-72
2023/12/18 11:02:19;;;;;;;15.13;9.73;;;;;;;6.64;100.00;102362.19;5044582;28;20217;-73
2023/12/18 11:04:47;;;;;;;17.10;9.50;;;;;;;6.70;100.00;102368.25;5041253;28;20191;-73
2023/12/18 11:07:17;;;;;;;14.07;8.23;;;;;;;6.72;100.00;102366.94;5037075;28;20199;-73
2023/12/18 11:09:44;;;;;;;14.67;7.70;;;;;;;6.76;100.00;102354.91;5041324;28;20231;-73
2023/12/18 11:12:12;;;;;;;12.47;7.73;;;;;;;6.78;100.00;102355.44;5037313;28;20204;-72
2023/12/18 11:14:52;;;;;;;15.33;8.23;;;;;;;6.81;100.00;102354.94;5038870;28;20214;-73
2023/12/18 11:17:28;;;;;;;12.90;8.63;;;;;;;6.86;100.00;102346.25;5042864;28;20218;-72